sensor_id;sensor_type;location;lat;lon;timestamp;P1;durP1;ratioP1;P2;durP2;ratioP2
5999;SDS011;3028;49.468;7.694;2022-12-18T00:00:56;21.57;;;19.13;;
5999;SDS011;3028;49.468;7.694;2022-12-18T00:02:58;29.70;;;18.63;;
5999;SDS011;3028;49.468;7.694;2022-12-18T00:05:00;18.20;;;16.57;;
5999;SDS011;3028;49.468;7.694;2022-12-18T00:07:01;20.40;;;18.40;;
5999;SDS011;3028;49.468;7.694;2022-12-18T00:09:04;28.70;;;19.13;;
5999;SDS011;3028;49.468;7.694;2022-12-18T00:11:06;23.77;;;17.53;;
5999;SDS011;3028;49.468;7.694;2022-12-18T00:13:09;17.33;;;15.23;;
5999;SDS011;3028;49.468;7.694;2022-12-18T00:15:11;21.07;;;17.37;;
5999;SDS011;3028;49.468;7.694;2022-12-18T00:17:13;19.20;;;15.87;;
5999;SDS011;3028;49.468;7.694;2022-12-18T00:19:15;18.73;;;16.87;;
5999;SDS011;3028;49.468;7.694;2022-12-18T00:21:18;19.40;;;17.80;;
5999;SDS011;3028;49.468;7.694;2022-12-18T00:23:20;20.13;;;17.37;;
5999;SDS011;3028;49.468;7.694;2022-12-18T00:25:22;20.00;;;17.67;;
5999;SDS011;3028;49.468;7.694;2022-12-18T00:27:24;15.87;;;14.40;;
5999;SDS011;3028;49.468;7.694;2022-12-18T00:29:26;25.77;;;16.30;;
5999;SDS011;3028;49.468;7.694;2022-12-18T00:31:28;17.77;;;15.17;;
5999;SDS011;3028;49.468;7.694;2022-12-18T00:33:30;25.40;;;16.93;;
5999;SDS011;3028;49.468;7.694;2022-12-18T00:35:32;22.80;;;17.73;;
5999;SDS011;3028;49.468;7.694;2022-12-18T00:37:34;20.87;;;15.50;;
5999;SDS011;3028;49.468;7.694;2022-12-18T00:39:36;16.77;;;13.67;;
5999;SDS011;3028;49.468;7.694;2022-12-18T00:41:37;19.73;;;17.63;;
5999;SDS011;3028;49.468;7.694;2022-12-18T00:43:58;23.27;;;16.27;;
5999;SDS011;3028;49.468;7.694;2022-12-18T00:45:59;22.20;;;18.53;;
5999;SDS011;3028;49.468;7.694;2022-12-18T00:48:01;22.53;;;16.07;;
5999;SDS011;3028;49.468;7.694;2022-12-18T00:50:04;17.00;;;15.53;;
5999;SDS011;3028;49.468;7.694;2022-12-18T00:52:07;16.17;;;13.57;;
5999;SDS011;3028;49.468;7.694;2022-12-18T00:54:08;24.87;;;15.50;;
5999;SDS011;3028;49.468;7.694;2022-12-18T00:56:11;16.87;;;15.23;;
5999;SDS011;3028;49.468;7.694;2022-12-18T00:58:14;16.63;;;14.97;;
5999;SDS011;3028;49.468;7.694;2022-12-18T01:00:16;20.07;;;13.57;;
5999;SDS011;3028;49.468;7.694;2022-12-18T01:02:18;21.13;;;14.73;;
5999;SDS011;3028;49.468;7.694;2022-12-18T01:04:20;17.97;;;16.17;;
5999;SDS011;3028;49.468;7.694;2022-12-18T01:06:22;17.20;;;15.00;;
5999;SDS011;3028;49.468;7.694;2022-12-18T01:08:24;18.03;;;16.23;;
5999;SDS011;3028;49.468;7.694;2022-12-18T01:10:26;15.60;;;13.23;;
5999;SDS011;3028;49.468;7.694;2022-12-18T01:12:28;22.53;;;18.03;;
5999;SDS011;3028;49.468;7.694;2022-12-18T01:14:29;20.60;;;13.13;;
5999;SDS011;3028;49.468;7.694;2022-12-18T01:16:31;20.00;;;16.37;;
5999;SDS011;3028;49.468;7.694;2022-12-18T01:18:33;19.03;;;17.00;;
5999;SDS011;3028;49.468;7.694;2022-12-18T01:20:35;15.53;;;14.03;;
5999;SDS011;3028;49.468;7.694;2022-12-18T01:22:37;15.53;;;13.47;;
5999;SDS011;3028;49.468;7.694;2022-12-18T01:24:39;21.13;;;13.30;;
5999;SDS011;3028;49.468;7.694;2022-12-18T01:26:40;15.87;;;14.43;;
5999;SDS011;3028;49.468;7.694;2022-12-18T01:28:42;17.63;;;15.93;;
5999;SDS011;3028;49.468;7.694;2022-12-18T01:30:48;23.40;;;16.57;;
5999;SDS011;3028;49.468;7.694;2022-12-18T01:32:50;22.70;;;14.30;;
5999;SDS011;3028;49.468;7.694;2022-12-18T01:34:52;18.63;;;16.77;;
5999;SDS011;3028;49.468;7.694;2022-12-18T01:36:54;17.63;;;13.27;;
5999;SDS011;3028;49.468;7.694;2022-12-18T01:38:59;18.10;;;15.77;;
5999;SDS011;3028;49.468;7.694;2022-12-18T01:41:02;22.93;;;15.27;;
5999;SDS011;3028;49.468;7.694;2022-12-18T01:43:03;13.67;;;12.37;;
5999;SDS011;3028;49.468;7.694;2022-12-18T01:47:15;14.63;;;13.17;;
5999;SDS011;3028;49.468;7.694;2022-12-18T01:49:18;19.43;;;15.63;;
5999;SDS011;3028;49.468;7.694;2022-12-18T01:51:19;20.67;;;15.17;;
5999;SDS011;3028;49.468;7.694;2022-12-18T01:53:22;18.70;;;16.83;;
5999;SDS011;3028;49.468;7.694;2022-12-18T01:55:26;18.57;;;14.77;;
5999;SDS011;3028;49.468;7.694;2022-12-18T01:57:30;16.37;;;14.63;;
5999;SDS011;3028;49.468;7.694;2022-12-18T01:59:32;16.00;;;14.47;;
5999;SDS011;3028;49.468;7.694;2022-12-18T02:01:35;13.17;;;12.07;;
5999;SDS011;3028;49.468;7.694;2022-12-18T02:03:42;21.70;;;14.50;;
5999;SDS011;3028;49.468;7.694;2022-12-18T02:08:10;20.20;;;13.80;;
5999;SDS011;3028;49.468;7.694;2022-12-18T02:10:15;15.37;;;13.77;;
5999;SDS011;3028;49.468;7.694;2022-12-18T02:12:27;14.60;;;13.00;;
5999;SDS011;3028;49.468;7.694;2022-12-18T02:17:07;16.93;;;14.53;;
5999;SDS011;3028;49.468;7.694;2022-12-18T02:22:01;18.13;;;12.77;;
5999;SDS011;3028;49.468;7.694;2022-12-18T02:26:36;15.10;;;13.50;;
5999;SDS011;3028;49.468;7.694;2022-12-18T02:28:44;22.53;;;16.17;;
5999;SDS011;3028;49.468;7.694;2022-12-18T02:30:48;14.30;;;12.77;;
5999;SDS011;3028;49.468;7.694;2022-12-18T02:32:52;17.63;;;13.33;;
5999;SDS011;3028;49.468;7.694;2022-12-18T02:34:55;19.23;;;16.47;;
5999;SDS011;3028;49.468;7.694;2022-12-18T02:36:58;23.87;;;15.43;;
5999;SDS011;3028;49.468;7.694;2022-12-18T02:39:03;15.73;;;14.30;;
5999;SDS011;3028;49.468;7.694;2022-12-18T02:41:06;22.60;;;16.47;;
5999;SDS011;3028;49.468;7.694;2022-12-18T02:43:10;16.43;;;14.47;;
5999;SDS011;3028;49.468;7.694;2022-12-18T02:45:13;23.73;;;16.13;;
5999;SDS011;3028;49.468;7.694;2022-12-18T02:47:16;20.03;;;15.03;;
5999;SDS011;3028;49.468;7.694;2022-12-18T02:51:45;16.13;;;14.53;;
5999;SDS011;3028;49.468;7.694;2022-12-18T02:54:01;19.67;;;16.87;;
5999;SDS011;3028;49.468;7.694;2022-12-18T02:56:13;15.63;;;14.33;;
5999;SDS011;3028;49.468;7.694;2022-12-18T03:05:12;23.87;;;14.60;;
5999;SDS011;3028;49.468;7.694;2022-12-18T03:07:18;23.80;;;14.50;;
5999;SDS011;3028;49.468;7.694;2022-12-18T03:09:45;18.30;;;14.53;;
5999;SDS011;3028;49.468;7.694;2022-12-18T03:11:51;21.93;;;15.30;;
5999;SDS011;3028;49.468;7.694;2022-12-18T03:14:15;18.07;;;16.50;;
5999;SDS011;3028;49.468;7.694;2022-12-18T03:16:20;18.33;;;15.90;;
5999;SDS011;3028;49.468;7.694;2022-12-18T03:18:30;22.90;;;16.03;;
5999;SDS011;3028;49.468;7.694;2022-12-18T03:20:36;21.73;;;15.97;;
5999;SDS011;3028;49.468;7.694;2022-12-18T03:22:38;16.27;;;14.97;;
5999;SDS011;3028;49.468;7.694;2022-12-18T03:24:41;20.83;;;14.63;;
5999;SDS011;3028;49.468;7.694;2022-12-18T03:26:44;21.87;;;15.13;;
5999;SDS011;3028;49.468;7.694;2022-12-18T03:28:53;21.93;;;16.97;;
5999;SDS011;3028;49.468;7.694;2022-12-18T03:30:58;23.80;;;15.77;;
5999;SDS011;3028;49.468;7.694;2022-12-18T03:33:03;16.93;;;14.87;;
5999;SDS011;3028;49.468;7.694;2022-12-18T03:35:09;17.43;;;15.83;;
5999;SDS011;3028;49.468;7.694;2022-12-18T03:37:12;16.57;;;14.67;;
5999;SDS011;3028;49.468;7.694;2022-12-18T03:39:14;18.33;;;15.27;;
5999;SDS011;3028;49.468;7.694;2022-12-18T03:41:21;22.83;;;16.13;;
5999;SDS011;3028;49.468;7.694;2022-12-18T03:45:41;18.50;;;13.80;;
5999;SDS011;3028;49.468;7.694;2022-12-18T03:52:18;18.97;;;16.97;;
5999;SDS011;3028;49.468;7.694;2022-12-18T03:54:23;15.17;;;13.63;;
5999;SDS011;3028;49.468;7.694;2022-12-18T03:56:28;16.10;;;12.97;;
5999;SDS011;3028;49.468;7.694;2022-12-18T03:58:31;19.57;;;16.57;;
5999;SDS011;3028;49.468;7.694;2022-12-18T04:00:34;21.30;;;14.50;;
5999;SDS011;3028;49.468;7.694;2022-12-18T04:02:37;15.97;;;14.40;;
5999;SDS011;3028;49.468;7.694;2022-12-18T04:04:39;24.23;;;13.13;;
5999;SDS011;3028;49.468;7.694;2022-12-18T04:06:41;16.03;;;14.43;;
5999;SDS011;3028;49.468;7.694;2022-12-18T04:08:44;20.97;;;15.30;;
5999;SDS011;3028;49.468;7.694;2022-12-18T04:10:47;16.43;;;13.53;;
5999;SDS011;3028;49.468;7.694;2022-12-18T04:12:49;21.37;;;14.40;;
5999;SDS011;3028;49.468;7.694;2022-12-18T04:14:50;22.47;;;15.03;;
5999;SDS011;3028;49.468;7.694;2022-12-18T04:16:52;13.37;;;11.93;;
5999;SDS011;3028;49.468;7.694;2022-12-18T04:18:55;18.60;;;15.17;;
5999;SDS011;3028;49.468;7.694;2022-12-18T04:20:57;18.63;;;14.60;;
5999;SDS011;3028;49.468;7.694;2022-12-18T04:22:58;19.83;;;15.27;;
5999;SDS011;3028;49.468;7.694;2022-12-18T04:25:00;18.03;;;15.77;;
5999;SDS011;3028;49.468;7.694;2022-12-18T04:27:02;20.80;;;14.80;;
5999;SDS011;3028;49.468;7.694;2022-12-18T04:29:06;19.67;;;17.87;;
5999;SDS011;3028;49.468;7.694;2022-12-18T04:31:07;13.70;;;12.30;;
5999;SDS011;3028;49.468;7.694;2022-12-18T04:33:13;15.07;;;13.67;;
5999;SDS011;3028;49.468;7.694;2022-12-18T04:35:31;16.43;;;15.10;;
5999;SDS011;3028;49.468;7.694;2022-12-18T04:37:33;17.57;;;15.60;;
5999;SDS011;3028;49.468;7.694;2022-12-18T04:39:34;17.03;;;15.33;;
5999;SDS011;3028;49.468;7.694;2022-12-18T04:41:37;22.93;;;14.50;;
5999;SDS011;3028;49.468;7.694;2022-12-18T04:43:38;19.93;;;13.17;;
5999;SDS011;3028;49.468;7.694;2022-12-18T04:45:41;18.70;;;17.00;;
5999;SDS011;3028;49.468;7.694;2022-12-18T04:47:43;22.40;;;16.13;;
5999;SDS011;3028;49.468;7.694;2022-12-18T04:49:46;17.80;;;13.43;;
5999;SDS011;3028;49.468;7.694;2022-12-18T04:51:51;16.13;;;12.90;;
5999;SDS011;3028;49.468;7.694;2022-12-18T04:53:53;15.87;;;14.40;;
5999;SDS011;3028;49.468;7.694;2022-12-18T04:56:02;17.70;;;14.33;;
5999;SDS011;3028;49.468;7.694;2022-12-18T04:58:07;17.57;;;13.40;;
5999;SDS011;3028;49.468;7.694;2022-12-18T05:00:09;19.93;;;15.73;;
5999;SDS011;3028;49.468;7.694;2022-12-18T05:02:12;18.10;;;16.27;;
5999;SDS011;3028;49.468;7.694;2022-12-18T05:04:14;18.30;;;16.37;;
5999;SDS011;3028;49.468;7.694;2022-12-18T05:06:15;22.20;;;17.53;;
5999;SDS011;3028;49.468;7.694;2022-12-18T05:08:17;15.43;;;14.20;;
5999;SDS011;3028;49.468;7.694;2022-12-18T05:10:20;15.93;;;14.50;;
5999;SDS011;3028;49.468;7.694;2022-12-18T05:12:22;19.53;;;15.63;;
5999;SDS011;3028;49.468;7.694;2022-12-18T05:14:23;16.00;;;14.50;;
5999;SDS011;3028;49.468;7.694;2022-12-18T05:16:25;15.97;;;14.47;;
5999;SDS011;3028;49.468;7.694;2022-12-18T05:18:27;15.37;;;14.10;;
5999;SDS011;3028;49.468;7.694;2022-12-18T05:20:29;22.00;;;15.90;;
5999;SDS011;3028;49.468;7.694;2022-12-18T05:22:31;21.60;;;17.40;;
5999;SDS011;3028;49.468;7.694;2022-12-18T05:24:33;25.60;;;19.23;;
5999;SDS011;3028;49.468;7.694;2022-12-18T05:26:35;35.83;;;21.03;;
5999;SDS011;3028;49.468;7.694;2022-12-18T05:28:36;38.13;;;22.93;;
5999;SDS011;3028;49.468;7.694;2022-12-18T05:30:38;32.80;;;17.70;;
5999;SDS011;3028;49.468;7.694;2022-12-18T05:32:43;28.87;;;18.70;;
5999;SDS011;3028;49.468;7.694;2022-12-18T05:34:45;31.43;;;20.70;;
5999;SDS011;3028;49.468;7.694;2022-12-18T05:36:48;38.70;;;20.27;;
5999;SDS011;3028;49.468;7.694;2022-12-18T05:38:49;35.07;;;21.27;;
5999;SDS011;3028;49.468;7.694;2022-12-18T05:40:51;22.90;;;20.20;;
5999;SDS011;3028;49.468;7.694;2022-12-18T05:42:53;32.17;;;19.80;;
5999;SDS011;3028;49.468;7.694;2022-12-18T05:44:55;35.63;;;21.23;;
5999;SDS011;3028;49.468;7.694;2022-12-18T05:46:57;28.60;;;16.43;;
5999;SDS011;3028;49.468;7.694;2022-12-18T05:48:59;32.37;;;19.47;;
5999;SDS011;3028;49.468;7.694;2022-12-18T05:51:05;25.57;;;19.17;;
5999;SDS011;3028;49.468;7.694;2022-12-18T05:53:25;18.83;;;16.83;;
5999;SDS011;3028;49.468;7.694;2022-12-18T05:55:27;22.60;;;16.10;;
5999;SDS011;3028;49.468;7.694;2022-12-18T05:57:29;21.07;;;18.13;;
5999;SDS011;3028;49.468;7.694;2022-12-18T05:59:31;19.90;;;17.40;;
5999;SDS011;3028;49.468;7.694;2022-12-18T06:01:33;17.47;;;15.73;;
5999;SDS011;3028;49.468;7.694;2022-12-18T06:03:35;19.87;;;17.83;;
5999;SDS011;3028;49.468;7.694;2022-12-18T06:05:40;23.17;;;18.90;;
5999;SDS011;3028;49.468;7.694;2022-12-18T06:07:44;19.33;;;13.70;;
5999;SDS011;3028;49.468;7.694;2022-12-18T06:09:46;16.67;;;14.40;;
5999;SDS011;3028;49.468;7.694;2022-12-18T06:11:47;23.77;;;17.93;;
5999;SDS011;3028;49.468;7.694;2022-12-18T06:13:50;16.37;;;14.77;;
5999;SDS011;3028;49.468;7.694;2022-12-18T06:16:01;16.97;;;15.30;;
5999;SDS011;3028;49.468;7.694;2022-12-18T06:18:03;15.63;;;12.87;;
5999;SDS011;3028;49.468;7.694;2022-12-18T06:20:05;22.97;;;16.40;;
5999;SDS011;3028;49.468;7.694;2022-12-18T06:22:08;15.67;;;14.53;;
5999;SDS011;3028;49.468;7.694;2022-12-18T06:24:09;17.03;;;15.43;;
5999;SDS011;3028;49.468;7.694;2022-12-18T06:26:11;16.23;;;14.83;;
5999;SDS011;3028;49.468;7.694;2022-12-18T06:28:13;16.90;;;13.90;;
5999;SDS011;3028;49.468;7.694;2022-12-18T06:30:15;18.63;;;16.97;;
5999;SDS011;3028;49.468;7.694;2022-12-18T06:32:17;14.37;;;13.23;;
5999;SDS011;3028;49.468;7.694;2022-12-18T06:34:19;17.80;;;16.10;;
5999;SDS011;3028;49.468;7.694;2022-12-18T06:36:21;18.17;;;15.53;;
5999;SDS011;3028;49.468;7.694;2022-12-18T06:38:22;20.97;;;16.13;;
5999;SDS011;3028;49.468;7.694;2022-12-18T06:40:24;18.17;;;15.07;;
5999;SDS011;3028;49.468;7.694;2022-12-18T06:42:26;22.90;;;15.37;;
5999;SDS011;3028;49.468;7.694;2022-12-18T06:44:28;20.70;;;16.63;;
5999;SDS011;3028;49.468;7.694;2022-12-18T06:46:29;17.93;;;15.43;;
5999;SDS011;3028;49.468;7.694;2022-12-18T06:48:31;18.80;;;16.80;;
5999;SDS011;3028;49.468;7.694;2022-12-18T06:50:33;19.03;;;17.13;;
5999;SDS011;3028;49.468;7.694;2022-12-18T06:52:35;22.63;;;14.40;;
5999;SDS011;3028;49.468;7.694;2022-12-18T06:54:38;30.87;;;18.67;;
5999;SDS011;3028;49.468;7.694;2022-12-18T06:56:39;17.67;;;15.43;;
5999;SDS011;3028;49.468;7.694;2022-12-18T06:58:41;20.33;;;18.17;;
5999;SDS011;3028;49.468;7.694;2022-12-18T07:00:43;19.07;;;17.27;;
5999;SDS011;3028;49.468;7.694;2022-12-18T07:02:45;16.80;;;15.10;;
5999;SDS011;3028;49.468;7.694;2022-12-18T07:04:47;23.13;;;14.77;;
5999;SDS011;3028;49.468;7.694;2022-12-18T07:06:49;28.17;;;15.60;;
5999;SDS011;3028;49.468;7.694;2022-12-18T07:08:51;16.27;;;14.87;;
5999;SDS011;3028;49.468;7.694;2022-12-18T07:10:54;24.03;;;19.70;;
5999;SDS011;3028;49.468;7.694;2022-12-18T07:12:56;17.33;;;15.83;;
5999;SDS011;3028;49.468;7.694;2022-12-18T07:14:58;19.50;;;16.83;;
5999;SDS011;3028;49.468;7.694;2022-12-18T07:17:00;16.83;;;15.40;;
5999;SDS011;3028;49.468;7.694;2022-12-18T07:19:02;16.47;;;15.13;;
5999;SDS011;3028;49.468;7.694;2022-12-18T07:21:07;19.43;;;17.53;;
5999;SDS011;3028;49.468;7.694;2022-12-18T07:23:11;18.17;;;16.40;;
5999;SDS011;3028;49.468;7.694;2022-12-18T07:25:12;21.60;;;15.73;;
5999;SDS011;3028;49.468;7.694;2022-12-18T07:27:14;15.73;;;14.37;;
5999;SDS011;3028;49.468;7.694;2022-12-18T07:29:16;19.30;;;17.57;;
5999;SDS011;3028;49.468;7.694;2022-12-18T07:31:19;22.40;;;16.50;;
5999;SDS011;3028;49.468;7.694;2022-12-18T07:33:22;17.07;;;15.43;;
5999;SDS011;3028;49.468;7.694;2022-12-18T07:35:24;20.90;;;15.30;;
5999;SDS011;3028;49.468;7.694;2022-12-18T07:37:25;22.70;;;14.53;;
5999;SDS011;3028;49.468;7.694;2022-12-18T07:39:27;14.83;;;13.57;;
5999;SDS011;3028;49.468;7.694;2022-12-18T07:41:29;16.87;;;15.10;;
5999;SDS011;3028;49.468;7.694;2022-12-18T07:43:31;18.07;;;15.33;;
5999;SDS011;3028;49.468;7.694;2022-12-18T07:45:32;20.23;;;14.40;;
5999;SDS011;3028;49.468;7.694;2022-12-18T07:47:34;15.73;;;13.67;;
5999;SDS011;3028;49.468;7.694;2022-12-18T07:49:37;16.70;;;14.47;;
5999;SDS011;3028;49.468;7.694;2022-12-18T07:51:39;18.03;;;16.30;;
5999;SDS011;3028;49.468;7.694;2022-12-18T07:53:41;19.20;;;15.00;;
5999;SDS011;3028;49.468;7.694;2022-12-18T07:55:43;19.80;;;15.77;;
5999;SDS011;3028;49.468;7.694;2022-12-18T07:58:05;17.03;;;15.20;;
5999;SDS011;3028;49.468;7.694;2022-12-18T08:00:07;19.93;;;17.80;;
5999;SDS011;3028;49.468;7.694;2022-12-18T08:02:09;19.80;;;18.00;;
5999;SDS011;3028;49.468;7.694;2022-12-18T08:04:12;15.83;;;14.43;;
5999;SDS011;3028;49.468;7.694;2022-12-18T08:06:14;16.13;;;14.07;;
5999;SDS011;3028;49.468;7.694;2022-12-18T08:08:16;17.60;;;15.80;;
5999;SDS011;3028;49.468;7.694;2022-12-18T08:10:18;23.43;;;16.30;;
5999;SDS011;3028;49.468;7.694;2022-12-18T08:12:20;22.03;;;16.73;;
5999;SDS011;3028;49.468;7.694;2022-12-18T08:14:22;18.40;;;16.87;;
5999;SDS011;3028;49.468;7.694;2022-12-18T08:16:24;19.53;;;16.67;;
5999;SDS011;3028;49.468;7.694;2022-12-18T08:18:26;18.50;;;16.60;;
5999;SDS011;3028;49.468;7.694;2022-12-18T08:20:27;24.97;;;16.40;;
5999;SDS011;3028;49.468;7.694;2022-12-18T08:22:29;19.33;;;17.73;;
5999;SDS011;3028;49.468;7.694;2022-12-18T08:24:31;37.10;;;21.30;;
5999;SDS011;3028;49.468;7.694;2022-12-18T08:26:33;26.83;;;19.10;;
5999;SDS011;3028;49.468;7.694;2022-12-18T08:28:34;21.87;;;19.80;;
5999;SDS011;3028;49.468;7.694;2022-12-18T08:30:37;20.20;;;15.93;;
5999;SDS011;3028;49.468;7.694;2022-12-18T08:32:38;26.80;;;17.90;;
5999;SDS011;3028;49.468;7.694;2022-12-18T08:34:40;19.40;;;14.90;;
5999;SDS011;3028;49.468;7.694;2022-12-18T08:36:42;16.77;;;15.00;;
5999;SDS011;3028;49.468;7.694;2022-12-18T08:38:44;16.47;;;14.80;;
5999;SDS011;3028;49.468;7.694;2022-12-18T08:40:46;17.83;;;15.57;;
5999;SDS011;3028;49.468;7.694;2022-12-18T08:42:47;15.83;;;14.47;;
5999;SDS011;3028;49.468;7.694;2022-12-18T08:45:08;21.53;;;15.17;;
5999;SDS011;3028;49.468;7.694;2022-12-18T08:47:10;22.03;;;16.20;;
5999;SDS011;3028;49.468;7.694;2022-12-18T08:49:12;20.57;;;14.70;;
5999;SDS011;3028;49.468;7.694;2022-12-18T08:51:15;16.10;;;14.50;;
5999;SDS011;3028;49.468;7.694;2022-12-18T08:53:18;17.33;;;15.07;;
5999;SDS011;3028;49.468;7.694;2022-12-18T08:55:20;17.70;;;14.93;;
5999;SDS011;3028;49.468;7.694;2022-12-18T08:57:23;23.73;;;13.80;;
5999;SDS011;3028;49.468;7.694;2022-12-18T08:59:24;22.30;;;18.57;;
5999;SDS011;3028;49.468;7.694;2022-12-18T09:01:29;38.47;;;22.03;;
5999;SDS011;3028;49.468;7.694;2022-12-18T09:03:32;60.07;;;30.27;;
5999;SDS011;3028;49.468;7.694;2022-12-18T09:05:34;56.63;;;28.13;;
5999;SDS011;3028;49.468;7.694;2022-12-18T09:07:36;51.50;;;27.97;;
5999;SDS011;3028;49.468;7.694;2022-12-18T09:09:37;44.03;;;25.40;;
5999;SDS011;3028;49.468;7.694;2022-12-18T09:11:39;35.63;;;23.03;;
5999;SDS011;3028;49.468;7.694;2022-12-18T09:13:41;31.10;;;21.67;;
5999;SDS011;3028;49.468;7.694;2022-12-18T09:15:53;39.33;;;20.97;;
5999;SDS011;3028;49.468;7.694;2022-12-18T09:17:55;29.73;;;22.13;;
5999;SDS011;3028;49.468;7.694;2022-12-18T09:19:57;26.27;;;19.10;;
5999;SDS011;3028;49.468;7.694;2022-12-18T09:21:59;28.63;;;20.07;;
5999;SDS011;3028;49.468;7.694;2022-12-18T09:24:00;20.30;;;18.53;;
5999;SDS011;3028;49.468;7.694;2022-12-18T09:26:02;23.23;;;19.90;;
5999;SDS011;3028;49.468;7.694;2022-12-18T09:28:05;34.63;;;20.40;;
5999;SDS011;3028;49.468;7.694;2022-12-18T09:30:10;22.50;;;18.73;;
5999;SDS011;3028;49.468;7.694;2022-12-18T09:32:12;19.67;;;16.93;;
5999;SDS011;3028;49.468;7.694;2022-12-18T09:34:22;28.17;;;19.70;;
5999;SDS011;3028;49.468;7.694;2022-12-18T09:36:24;26.93;;;18.17;;
5999;SDS011;3028;49.468;7.694;2022-12-18T09:38:26;26.50;;;19.00;;
5999;SDS011;3028;49.468;7.694;2022-12-18T09:40:28;21.73;;;18.73;;
5999;SDS011;3028;49.468;7.694;2022-12-18T09:42:35;27.17;;;20.10;;
5999;SDS011;3028;49.468;7.694;2022-12-18T09:44:41;30.87;;;19.83;;
5999;SDS011;3028;49.468;7.694;2022-12-18T09:46:48;34.63;;;21.03;;
5999;SDS011;3028;49.468;7.694;2022-12-18T09:48:59;31.80;;;19.40;;
5999;SDS011;3028;49.468;7.694;2022-12-18T09:51:04;33.80;;;21.60;;
5999;SDS011;3028;49.468;7.694;2022-12-18T09:53:34;32.77;;;19.17;;
5999;SDS011;3028;49.468;7.694;2022-12-18T09:55:41;33.57;;;19.20;;
5999;SDS011;3028;49.468;7.694;2022-12-18T09:57:49;26.63;;;20.50;;
5999;SDS011;3028;49.468;7.694;2022-12-18T09:59:58;23.50;;;19.17;;
5999;SDS011;3028;49.468;7.694;2022-12-18T10:04:31;20.13;;;18.00;;
5999;SDS011;3028;49.468;7.694;2022-12-18T10:06:35;22.60;;;15.53;;
5999;SDS011;3028;49.468;7.694;2022-12-18T10:10:50;20.17;;;17.77;;
5999;SDS011;3028;49.468;7.694;2022-12-18T10:13:00;25.33;;;16.03;;
5999;SDS011;3028;49.468;7.694;2022-12-18T10:15:24;18.87;;;16.90;;
5999;SDS011;3028;49.468;7.694;2022-12-18T10:22:24;17.50;;;15.63;;
5999;SDS011;3028;49.468;7.694;2022-12-18T10:26:44;18.17;;;16.33;;
5999;SDS011;3028;49.468;7.694;2022-12-18T10:28:46;25.97;;;16.13;;
5999;SDS011;3028;49.468;7.694;2022-12-18T10:30:48;19.97;;;15.83;;
5999;SDS011;3028;49.468;7.694;2022-12-18T10:32:50;22.33;;;16.77;;
5999;SDS011;3028;49.468;7.694;2022-12-18T10:35:19;18.60;;;16.93;;
5999;SDS011;3028;49.468;7.694;2022-12-18T10:37:28;22.77;;;17.27;;
5999;SDS011;3028;49.468;7.694;2022-12-18T10:39:30;17.37;;;15.50;;
5999;SDS011;3028;49.468;7.694;2022-12-18T10:41:32;18.10;;;16.23;;
5999;SDS011;3028;49.468;7.694;2022-12-18T10:43:38;18.37;;;14.73;;
5999;SDS011;3028;49.468;7.694;2022-12-18T10:45:41;23.07;;;16.57;;
5999;SDS011;3028;49.468;7.694;2022-12-18T10:47:44;16.47;;;12.63;;
5999;SDS011;3028;49.468;7.694;2022-12-18T10:49:50;16.60;;;14.97;;
5999;SDS011;3028;49.468;7.694;2022-12-18T10:54:22;22.67;;;17.23;;
5999;SDS011;3028;49.468;7.694;2022-12-18T10:56:26;18.90;;;16.83;;
5999;SDS011;3028;49.468;7.694;2022-12-18T10:58:29;73.37;;;31.43;;
5999;SDS011;3028;49.468;7.694;2022-12-18T11:00:33;82.17;;;35.03;;
5999;SDS011;3028;49.468;7.694;2022-12-18T11:02:39;131.90;;;52.93;;
5999;SDS011;3028;49.468;7.694;2022-12-18T11:04:49;123.53;;;47.90;;
5999;SDS011;3028;49.468;7.694;2022-12-18T11:06:59;84.47;;;38.30;;
5999;SDS011;3028;49.468;7.694;2022-12-18T11:09:06;62.50;;;35.37;;
5999;SDS011;3028;49.468;7.694;2022-12-18T11:11:23;36.20;;;21.33;;
5999;SDS011;3028;49.468;7.694;2022-12-18T11:13:27;25.80;;;20.37;;
5999;SDS011;3028;49.468;7.694;2022-12-18T11:15:29;23.67;;;18.03;;
5999;SDS011;3028;49.468;7.694;2022-12-18T11:17:32;22.70;;;17.83;;
5999;SDS011;3028;49.468;7.694;2022-12-18T11:19:36;36.47;;;24.23;;
5999;SDS011;3028;49.468;7.694;2022-12-18T11:21:40;26.47;;;20.13;;
5999;SDS011;3028;49.468;7.694;2022-12-18T11:23:50;17.17;;;15.03;;
5999;SDS011;3028;49.468;7.694;2022-12-18T11:25:54;28.60;;;20.67;;
5999;SDS011;3028;49.468;7.694;2022-12-18T11:28:03;23.73;;;21.27;;
5999;SDS011;3028;49.468;7.694;2022-12-18T11:30:12;27.63;;;20.73;;
5999;SDS011;3028;49.468;7.694;2022-12-18T11:34:30;39.10;;;21.03;;
5999;SDS011;3028;49.468;7.694;2022-12-18T11:36:33;30.23;;;20.53;;
5999;SDS011;3028;49.468;7.694;2022-12-18T11:38:42;22.30;;;19.40;;
5999;SDS011;3028;49.468;7.694;2022-12-18T11:40:45;21.90;;;18.40;;
5999;SDS011;3028;49.468;7.694;2022-12-18T11:42:54;22.57;;;17.37;;
5999;SDS011;3028;49.468;7.694;2022-12-18T11:45:08;19.23;;;17.07;;
5999;SDS011;3028;49.468;7.694;2022-12-18T11:50:13;17.83;;;15.90;;
5999;SDS011;3028;49.468;7.694;2022-12-18T11:54:22;22.50;;;17.67;;
5999;SDS011;3028;49.468;7.694;2022-12-18T11:56:35;21.67;;;17.17;;
5999;SDS011;3028;49.468;7.694;2022-12-18T12:00:55;24.90;;;16.63;;
5999;SDS011;3028;49.468;7.694;2022-12-18T12:12:46;18.30;;;16.50;;
5999;SDS011;3028;49.468;7.694;2022-12-18T12:15:10;26.70;;;18.17;;
5999;SDS011;3028;49.468;7.694;2022-12-18T12:21:41;24.10;;;18.33;;
5999;SDS011;3028;49.468;7.694;2022-12-18T12:23:55;22.50;;;18.30;;
5999;SDS011;3028;49.468;7.694;2022-12-18T12:26:04;31.90;;;17.90;;
5999;SDS011;3028;49.468;7.694;2022-12-18T12:33:14;21.97;;;18.93;;
5999;SDS011;3028;49.468;7.694;2022-12-18T12:40:04;24.13;;;14.73;;
5999;SDS011;3028;49.468;7.694;2022-12-18T12:44:53;21.47;;;15.90;;
5999;SDS011;3028;49.468;7.694;2022-12-18T12:47:00;20.57;;;17.60;;
5999;SDS011;3028;49.468;7.694;2022-12-18T12:49:12;27.00;;;18.23;;
5999;SDS011;3028;49.468;7.694;2022-12-18T12:51:31;22.77;;;18.70;;
5999;SDS011;3028;49.468;7.694;2022-12-18T12:53:41;24.93;;;18.73;;
5999;SDS011;3028;49.468;7.694;2022-12-18T12:55:43;23.53;;;16.33;;
5999;SDS011;3028;49.468;7.694;2022-12-18T12:57:57;30.30;;;17.50;;
5999;SDS011;3028;49.468;7.694;2022-12-18T13:07:38;31.67;;;22.70;;
5999;SDS011;3028;49.468;7.694;2022-12-18T13:10:26;28.33;;;19.37;;
5999;SDS011;3028;49.468;7.694;2022-12-18T13:12:32;32.47;;;20.40;;
5999;SDS011;3028;49.468;7.694;2022-12-18T13:14:53;34.43;;;21.30;;
5999;SDS011;3028;49.468;7.694;2022-12-18T13:19:23;23.40;;;19.00;;
5999;SDS011;3028;49.468;7.694;2022-12-18T13:21:28;23.83;;;17.27;;
5999;SDS011;3028;49.468;7.694;2022-12-18T13:25:36;25.93;;;18.63;;
5999;SDS011;3028;49.468;7.694;2022-12-18T13:29:45;30.20;;;17.70;;
5999;SDS011;3028;49.468;7.694;2022-12-18T13:33:49;24.43;;;21.33;;
5999;SDS011;3028;49.468;7.694;2022-12-18T13:42:39;41.57;;;24.03;;
5999;SDS011;3028;49.468;7.694;2022-12-18T13:45:00;30.23;;;23.73;;
5999;SDS011;3028;49.468;7.694;2022-12-18T13:47:03;47.93;;;25.43;;
5999;SDS011;3028;49.468;7.694;2022-12-18T13:49:17;78.83;;;29.10;;
5999;SDS011;3028;49.468;7.694;2022-12-18T13:51:25;59.50;;;28.10;;
5999;SDS011;3028;49.468;7.694;2022-12-18T13:53:30;39.77;;;23.20;;
5999;SDS011;3028;49.468;7.694;2022-12-18T13:55:35;26.60;;;19.87;;
5999;SDS011;3028;49.468;7.694;2022-12-18T13:57:37;35.63;;;21.73;;
5999;SDS011;3028;49.468;7.694;2022-12-18T13:59:40;29.33;;;18.97;;
5999;SDS011;3028;49.468;7.694;2022-12-18T14:01:52;24.23;;;20.63;;
5999;SDS011;3028;49.468;7.694;2022-12-18T14:06:20;20.77;;;17.27;;
5999;SDS011;3028;49.468;7.694;2022-12-18T14:08:24;28.50;;;19.40;;
5999;SDS011;3028;49.468;7.694;2022-12-18T14:10:32;23.07;;;19.43;;
5999;SDS011;3028;49.468;7.694;2022-12-18T14:12:50;31.07;;;20.93;;
5999;SDS011;3028;49.468;7.694;2022-12-18T14:15:01;21.17;;;18.90;;